sensor_id;sensor_type;location;lat;lon;timestamp;temperature;humidity
43995;DHT22;51687;52.160;5.298;2023-10-31T00:11:12;13.70;76.90
43995;DHT22;51687;52.160;5.298;2023-10-31T00:13:38;13.60;77.20
43995;DHT22;51687;52.160;5.298;2023-10-31T00:16:06;13.60;77.00
43995;DHT22;51687;52.160;5.298;2023-10-31T00:18:33;13.60;77.00
43995;DHT22;51687;52.160;5.298;2023-10-31T00:21:00;13.60;77.10
43995;DHT22;51687;52.160;5.298;2023-10-31T00:23:27;13.60;77.30
43995;DHT22;51687;52.160;5.298;2023-10-31T00:25:53;13.50;77.90
43995;DHT22;51687;52.160;5.298;2023-10-31T00:28:20;13.50;77.40
43995;DHT22;51687;52.160;5.298;2023-10-31T00:30:47;13.50;77.60
43995;DHT22;51687;52.160;5.298;2023-10-31T00:33:14;13.50;77.70
43995;DHT22;51687;52.160;5.298;2023-10-31T00:35:40;13.50;77.70
43995;DHT22;51687;52.160;5.298;2023-10-31T00:38:07;13.50;77.70
43995;DHT22;51687;52.160;5.298;2023-10-31T00:40:34;13.50;77.90
43995;DHT22;51687;52.160;5.298;2023-10-31T00:43:02;13.50;77.90
43995;DHT22;51687;52.160;5.298;2023-10-31T00:45:28;13.50;77.90
43995;DHT22;51687;52.160;5.298;2023-10-31T00:47:55;13.50;78.00
43995;DHT22;51687;52.160;5.298;2023-10-31T00:50:22;13.50;78.10
43995;DHT22;51687;52.160;5.298;2023-10-31T00:52:49;13.50;78.30
43995;DHT22;51687;52.160;5.298;2023-10-31T00:55:16;13.50;78.30
43995;DHT22;51687;52.160;5.298;2023-10-31T00:57:42;13.50;78.40
43995;DHT22;51687;52.160;5.298;2023-10-31T01:00:10;13.50;78.50
43995;DHT22;51687;52.160;5.298;2023-10-31T01:02:36;13.40;78.60
43995;DHT22;51687;52.160;5.298;2023-10-31T01:05:04;13.40;78.60
43995;DHT22;51687;52.160;5.298;2023-10-31T01:07:31;13.50;78.50
43995;DHT22;51687;52.160;5.298;2023-10-31T01:09:57;13.40;78.50
43995;DHT22;51687;52.160;5.298;2023-10-31T01:12:24;13.40;78.50
43995;DHT22;51687;52.160;5.298;2023-10-31T01:14:52;13.50;78.60
43995;DHT22;51687;52.160;5.298;2023-10-31T01:17:19;13.50;78.70
43995;DHT22;51687;52.160;5.298;2023-10-31T01:19:45;13.50;78.90
43995;DHT22;51687;52.160;5.298;2023-10-31T01:22:12;13.40;78.80
43995;DHT22;51687;52.160;5.298;2023-10-31T01:24:39;13.40;78.80
43995;DHT22;51687;52.160;5.298;2023-10-31T01:27:06;13.50;78.90
43995;DHT22;51687;52.160;5.298;2023-10-31T01:29:33;13.50;79.00
43995;DHT22;51687;52.160;5.298;2023-10-31T01:31:59;13.50;79.10
43995;DHT22;51687;52.160;5.298;2023-10-31T01:34:33;13.50;79.30
43995;DHT22;51687;52.160;5.298;2023-10-31T01:36:59;13.50;79.30
43995;DHT22;51687;52.160;5.298;2023-10-31T01:39:26;13.50;79.50
43995;DHT22;51687;52.160;5.298;2023-10-31T01:41:53;13.50;79.30
43995;DHT22;51687;52.160;5.298;2023-10-31T01:44:21;13.50;79.50
43995;DHT22;51687;52.160;5.298;2023-10-31T01:46:48;13.50;79.50
43995;DHT22;51687;52.160;5.298;2023-10-31T01:49:15;13.50;79.50
43995;DHT22;51687;52.160;5.298;2023-10-31T01:51:42;13.50;79.50
43995;DHT22;51687;52.160;5.298;2023-10-31T01:54:10;13.50;79.40
43995;DHT22;51687;52.160;5.298;2023-10-31T01:56:37;13.50;79.50
43995;DHT22;51687;52.160;5.298;2023-10-31T01:59:05;13.50;79.40
43995;DHT22;51687;52.160;5.298;2023-10-31T02:01:35;13.50;79.30
43995;DHT22;51687;52.160;5.298;2023-10-31T02:04:02;13.50;79.30
43995;DHT22;51687;52.160;5.298;2023-10-31T02:06:29;13.50;79.40
43995;DHT22;51687;52.160;5.298;2023-10-31T02:08:57;13.50;79.50
43995;DHT22;51687;52.160;5.298;2023-10-31T02:11:23;13.50;80.00
43995;DHT22;51687;52.160;5.298;2023-10-31T02:13:50;13.50;79.40
43995;DHT22;51687;52.160;5.298;2023-10-31T02:16:17;13.50;79.50
43995;DHT22;51687;52.160;5.298;2023-10-31T02:18:44;13.50;79.40
43995;DHT22;51687;52.160;5.298;2023-10-31T02:21:11;13.50;79.40
43995;DHT22;51687;52.160;5.298;2023-10-31T02:23:37;13.50;79.40
43995;DHT22;51687;52.160;5.298;2023-10-31T02:26:04;13.50;79.50
43995;DHT22;51687;52.160;5.298;2023-10-31T02:28:37;13.50;79.80
43995;DHT22;51687;52.160;5.298;2023-10-31T02:31:04;13.50;79.90
43995;DHT22;51687;52.160;5.298;2023-10-31T02:33:31;13.50;80.00
43995;DHT22;51687;52.160;5.298;2023-10-31T02:35:58;13.50;80.10
43995;DHT22;51687;52.160;5.298;2023-10-31T02:38:24;13.50;80.20
43995;DHT22;51687;52.160;5.298;2023-10-31T02:40:51;13.50;80.10
43995;DHT22;51687;52.160;5.298;2023-10-31T02:43:18;13.50;80.20
43995;DHT22;51687;52.160;5.298;2023-10-31T02:45:45;13.50;80.10
43995;DHT22;51687;52.160;5.298;2023-10-31T02:48:12;13.50;80.00
43995;DHT22;51687;52.160;5.298;2023-10-31T02:50:38;13.50;80.10
43995;DHT22;51687;52.160;5.298;2023-10-31T02:53:05;13.60;80.00
43995;DHT22;51687;52.160;5.298;2023-10-31T02:55:32;13.60;79.90
43995;DHT22;51687;52.160;5.298;2023-10-31T02:57:59;13.60;80.00
43995;DHT22;51687;52.160;5.298;2023-10-31T03:00:26;13.60;79.90
43995;DHT22;51687;52.160;5.298;2023-10-31T03:02:53;13.60;79.80
43995;DHT22;51687;52.160;5.298;2023-10-31T03:05:20;13.60;79.80
43995;DHT22;51687;52.160;5.298;2023-10-31T03:07:47;13.60;79.90
43995;DHT22;51687;52.160;5.298;2023-10-31T03:10:14;13.60;79.80
43995;DHT22;51687;52.160;5.298;2023-10-31T03:12:40;13.60;79.90
43995;DHT22;51687;52.160;5.298;2023-10-31T03:15:08;13.60;79.90
43995;DHT22;51687;52.160;5.298;2023-10-31T03:17:34;13.60;79.80
43995;DHT22;51687;52.160;5.298;2023-10-31T03:20:02;13.60;79.80
43995;DHT22;51687;52.160;5.298;2023-10-31T03:22:30;13.60;80.00
43995;DHT22;51687;52.160;5.298;2023-10-31T03:24:56;13.60;80.10
43995;DHT22;51687;52.160;5.298;2023-10-31T03:27:23;13.60;80.20
43995;DHT22;51687;52.160;5.298;2023-10-31T03:29:50;13.60;80.30
43995;DHT22;51687;52.160;5.298;2023-10-31T03:32:17;13.60;80.30
43995;DHT22;51687;52.160;5.298;2023-10-31T03:34:43;13.60;80.30
43995;DHT22;51687;52.160;5.298;2023-10-31T03:37:10;13.60;80.20
43995;DHT22;51687;52.160;5.298;2023-10-31T03:39:37;13.60;80.20
43995;DHT22;51687;52.160;5.298;2023-10-31T03:42:04;13.60;80.10
43995;DHT22;51687;52.160;5.298;2023-10-31T03:44:31;13.60;80.10
43995;DHT22;51687;52.160;5.298;2023-10-31T03:46:58;13.60;80.00
43995;DHT22;51687;52.160;5.298;2023-10-31T03:49:25;13.60;80.10
43995;DHT22;51687;52.160;5.298;2023-10-31T03:51:52;13.60;80.20
43995;DHT22;51687;52.160;5.298;2023-10-31T03:54:19;13.60;80.30
43995;DHT22;51687;52.160;5.298;2023-10-31T03:56:45;13.60;80.30
43995;DHT22;51687;52.160;5.298;2023-10-31T03:59:12;13.60;80.20
43995;DHT22;51687;52.160;5.298;2023-10-31T04:01:39;13.60;80.00
43995;DHT22;51687;52.160;5.298;2023-10-31T04:04:07;13.60;79.90
43995;DHT22;51687;52.160;5.298;2023-10-31T04:06:33;13.60;79.90
43995;DHT22;51687;52.160;5.298;2023-10-31T04:09:00;13.50;79.80
43995;DHT22;51687;52.160;5.298;2023-10-31T04:11:27;13.50;79.80
43995;DHT22;51687;52.160;5.298;2023-10-31T04:13:54;13.50;79.70
43995;DHT22;51687;52.160;5.298;2023-10-31T04:16:20;13.50;79.80
43995;DHT22;51687;52.160;5.298;2023-10-31T04:18:47;13.50;79.90
43995;DHT22;51687;52.160;5.298;2023-10-31T04:21:14;13.50;80.00
43995;DHT22;51687;52.160;5.298;2023-10-31T04:23:41;13.50;79.90
43995;DHT22;51687;52.160;5.298;2023-10-31T04:26:08;13.40;79.70
43995;DHT22;51687;52.160;5.298;2023-10-31T04:28:35;13.40;79.70
43995;DHT22;51687;52.160;5.298;2023-10-31T04:31:02;13.40;79.70
43995;DHT22;51687;52.160;5.298;2023-10-31T04:33:29;13.50;79.70
43995;DHT22;51687;52.160;5.298;2023-10-31T04:35:56;13.40;79.70
43995;DHT22;51687;52.160;5.298;2023-10-31T04:38:22;13.40;79.60
43995;DHT22;51687;52.160;5.298;2023-10-31T04:40:49;13.40;79.60
43995;DHT22;51687;52.160;5.298;2023-10-31T04:43:16;13.40;79.30
43995;DHT22;51687;52.160;5.298;2023-10-31T04:45:43;13.40;79.20
43995;DHT22;51687;52.160;5.298;2023-10-31T04:48:10;13.40;79.20
43995;DHT22;51687;52.160;5.298;2023-10-31T04:50:37;13.40;79.20
43995;DHT22;51687;52.160;5.298;2023-10-31T04:53:03;13.40;79.10
43995;DHT22;51687;52.160;5.298;2023-10-31T04:55:30;13.40;79.00
43995;DHT22;51687;52.160;5.298;2023-10-31T04:57:57;13.40;78.80
43995;DHT22;51687;52.160;5.298;2023-10-31T05:00:24;13.30;78.60
43995;DHT22;51687;52.160;5.298;2023-10-31T05:02:50;13.40;78.50
43995;DHT22;51687;52.160;5.298;2023-10-31T05:05:17;13.30;78.40
43995;DHT22;51687;52.160;5.298;2023-10-31T05:07:44;13.30;78.50
43995;DHT22;51687;52.160;5.298;2023-10-31T05:10:11;13.30;78.50
43995;DHT22;51687;52.160;5.298;2023-10-31T05:12:38;13.30;78.30
43995;DHT22;51687;52.160;5.298;2023-10-31T05:15:05;13.30;78.30
43995;DHT22;51687;52.160;5.298;2023-10-31T05:17:32;13.30;78.30
43995;DHT22;51687;52.160;5.298;2023-10-31T05:19:59;13.30;78.30
43995;DHT22;51687;52.160;5.298;2023-10-31T05:22:26;13.30;78.20
43995;DHT22;51687;52.160;5.298;2023-10-31T05:24:52;13.20;78.10
43995;DHT22;51687;52.160;5.298;2023-10-31T05:27:19;13.20;78.20
43995;DHT22;51687;52.160;5.298;2023-10-31T05:29:46;13.20;78.30
43995;DHT22;51687;52.160;5.298;2023-10-31T05:32:13;13.20;78.30
43995;DHT22;51687;52.160;5.298;2023-10-31T05:34:39;13.20;78.50
43995;DHT22;51687;52.160;5.298;2023-10-31T05:37:06;13.20;78.60
43995;DHT22;51687;52.160;5.298;2023-10-31T05:39:33;13.20;78.60
43995;DHT22;51687;52.160;5.298;2023-10-31T05:42:00;13.20;78.60
43995;DHT22;51687;52.160;5.298;2023-10-31T05:44:27;13.10;78.60
43995;DHT22;51687;52.160;5.298;2023-10-31T05:46:54;13.20;78.80
43995;DHT22;51687;52.160;5.298;2023-10-31T05:49:20;13.20;78.90
43995;DHT22;51687;52.160;5.298;2023-10-31T05:51:53;13.20;78.90
43995;DHT22;51687;52.160;5.298;2023-10-31T05:54:20;13.10;78.90
43995;DHT22;51687;52.160;5.298;2023-10-31T05:56:47;13.10;78.90
43995;DHT22;51687;52.160;5.298;2023-10-31T05:59:14;13.10;79.50
43995;DHT22;51687;52.160;5.298;2023-10-31T06:01:41;13.10;78.90
43995;DHT22;51687;52.160;5.298;2023-10-31T06:04:08;13.10;78.40
43995;DHT22;51687;52.160;5.298;2023-10-31T06:06:37;13.10;78.90
43995;DHT22;51687;52.160;5.298;2023-10-31T06:09:05;13.10;78.90
43995;DHT22;51687;52.160;5.298;2023-10-31T06:11:31;13.10;78.80
43995;DHT22;51687;52.160;5.298;2023-10-31T06:13:59;13.10;78.90
43995;DHT22;51687;52.160;5.298;2023-10-31T06:16:26;13.10;78.90
43995;DHT22;51687;52.160;5.298;2023-10-31T06:18:53;13.10;78.90
43995;DHT22;51687;52.160;5.298;2023-10-31T06:21:19;13.10;78.90
43995;DHT22;51687;52.160;5.298;2023-10-31T06:23:46;13.00;79.00
43995;DHT22;51687;52.160;5.298;2023-10-31T06:26:13;13.10;79.10
43995;DHT22;51687;52.160;5.298;2023-10-31T06:28:40;13.10;78.90
43995;DHT22;51687;52.160;5.298;2023-10-31T06:31:18;13.10;78.90
43995;DHT22;51687;52.160;5.298;2023-10-31T06:33:44;13.10;78.80
43995;DHT22;51687;52.160;5.298;2023-10-31T06:36:11;13.10;78.80
43995;DHT22;51687;52.160;5.298;2023-10-31T06:38:38;13.10;78.80
43995;DHT22;51687;52.160;5.298;2023-10-31T06:41:05;13.00;78.80
43995;DHT22;51687;52.160;5.298;2023-10-31T06:53:25;13.00;78.80
43995;DHT22;51687;52.160;5.298;2023-10-31T09:03:30;13.00;78.80
43995;DHT22;51687;52.160;5.298;2023-10-31T09:05:58;13.70;82.20
43995;DHT22;51687;52.160;5.298;2023-10-31T09:08:25;13.70;82.10
43995;DHT22;51687;52.160;5.298;2023-10-31T09:10:52;13.80;82.30
43995;DHT22;51687;52.160;5.298;2023-10-31T09:13:19;13.80;82.30
43995;DHT22;51687;52.160;5.298;2023-10-31T09:15:46;13.90;82.30
43995;DHT22;51687;52.160;5.298;2023-10-31T09:18:13;13.90;82.20
43995;DHT22;51687;52.160;5.298;2023-10-31T09:20:39;13.90;82.10
43995;DHT22;51687;52.160;5.298;2023-10-31T09:23:06;13.90;82.20
43995;DHT22;51687;52.160;5.298;2023-10-31T09:25:33;14.00;82.30
43995;DHT22;51687;52.160;5.298;2023-10-31T09:28:00;14.00;82.40
43995;DHT22;51687;52.160;5.298;2023-10-31T09:30:26;14.00;82.40
43995;DHT22;51687;52.160;5.298;2023-10-31T09:32:53;14.00;82.60
43995;DHT22;51687;52.160;5.298;2023-10-31T09:35:20;14.10;82.80
43995;DHT22;51687;52.160;5.298;2023-10-31T09:37:47;14.10;83.00
43995;DHT22;51687;52.160;5.298;2023-10-31T09:40:16;14.10;83.20
43995;DHT22;51687;52.160;5.298;2023-10-31T09:42:44;14.10;83.30
43995;DHT22;51687;52.160;5.298;2023-10-31T09:45:11;14.10;83.20
43995;DHT22;51687;52.160;5.298;2023-10-31T09:47:39;14.10;82.90
43995;DHT22;51687;52.160;5.298;2023-10-31T09:50:07;14.20;82.80
43995;DHT22;51687;52.160;5.298;2023-10-31T09:52:36;14.20;82.70
43995;DHT22;51687;52.160;5.298;2023-10-31T09:55:04;14.20;82.80
43995;DHT22;51687;52.160;5.298;2023-10-31T09:57:32;14.20;82.90
43995;DHT22;51687;52.160;5.298;2023-10-31T09:59:59;14.30;83.20
43995;DHT22;51687;52.160;5.298;2023-10-31T10:02:25;14.30;83.40
43995;DHT22;51687;52.160;5.298;2023-10-31T10:04:52;14.30;83.50
43995;DHT22;51687;52.160;5.298;2023-10-31T10:07:20;14.30;83.70
43995;DHT22;51687;52.160;5.298;2023-10-31T10:09:47;14.40;83.70
43995;DHT22;51687;52.160;5.298;2023-10-31T10:12:15;14.40;84.00
43995;DHT22;51687;52.160;5.298;2023-10-31T10:14:45;14.40;84.00
43995;DHT22;51687;52.160;5.298;2023-10-31T10:17:23;14.50;83.90
43995;DHT22;51687;52.160;5.298;2023-10-31T10:20:10;14.50;83.80
43995;DHT22;51687;52.160;5.298;2023-10-31T10:22:41;14.60;83.70
43995;DHT22;51687;52.160;5.298;2023-10-31T10:25:18;14.60;83.80
43995;DHT22;51687;52.160;5.298;2023-10-31T10:27:47;14.70;84.20
43995;DHT22;51687;52.160;5.298;2023-10-31T10:30:15;14.70;84.30
43995;DHT22;51687;52.160;5.298;2023-10-31T10:32:42;14.70;84.10
43995;DHT22;51687;52.160;5.298;2023-10-31T10:35:10;14.80;84.20
43995;DHT22;51687;52.160;5.298;2023-10-31T10:37:37;14.80;83.90
43995;DHT22;51687;52.160;5.298;2023-10-31T10:40:06;14.90;83.70
43995;DHT22;51687;52.160;5.298;2023-10-31T10:42:44;14.90;83.80
43995;DHT22;51687;52.160;5.298;2023-10-31T10:45:12;15.00;84.10
43995;DHT22;51687;52.160;5.298;2023-10-31T10:47:40;15.00;84.00
43995;DHT22;51687;52.160;5.298;2023-10-31T10:50:12;15.10;83.90
43995;DHT22;51687;52.160;5.298;2023-10-31T10:52:47;15.10;83.10
43995;DHT22;51687;52.160;5.298;2023-10-31T10:55:25;15.10;81.80
43995;DHT22;51687;52.160;5.298;2023-10-31T11:07:48;15.20;81.50
43995;DHT22;51687;52.160;5.298;2023-10-31T11:10:17;15.40;78.40
43995;DHT22;51687;52.160;5.298;2023-10-31T11:12:45;15.40;78.20
43995;DHT22;51687;52.160;5.298;2023-10-31T11:15:15;15.40;78.70
43995;DHT22;51687;52.160;5.298;2023-10-31T11:17:46;15.50;79.00
43995;DHT22;51687;52.160;5.298;2023-10-31T11:20:15;15.50;78.30
43995;DHT22;51687;52.160;5.298;2023-10-31T11:22:46;15.50;78.70
43995;DHT22;51687;52.160;5.298;2023-10-31T11:25:18;15.50;79.00
43995;DHT22;51687;52.160;5.298;2023-10-31T11:28:19;15.50;78.30
43995;DHT22;51687;52.160;5.298;2023-10-31T11:30:48;15.50;78.10
43995;DHT22;51687;52.160;5.298;2023-10-31T11:33:19;15.50;78.20
43995;DHT22;51687;52.160;5.298;2023-10-31T11:36:05;15.50;78.60
43995;DHT22;51687;52.160;5.298;2023-10-31T11:38:35;15.60;78.80
43995;DHT22;51687;52.160;5.298;2023-10-31T11:41:03;15.50;78.70
43995;DHT22;51687;52.160;5.298;2023-10-31T11:46:18;15.50;77.10
43995;DHT22;51687;52.160;5.298;2023-10-31T11:48:50;15.50;77.30
43995;DHT22;51687;52.160;5.298;2023-10-31T11:51:21;15.50;77.10
43995;DHT22;51687;52.160;5.298;2023-10-31T11:53:49;15.40;76.50
43995;DHT22;51687;52.160;5.298;2023-10-31T11:56:20;15.40;76.70
43995;DHT22;51687;52.160;5.298;2023-10-31T11:59:01;15.40;77.20
43995;DHT22;51687;52.160;5.298;2023-10-31T12:01:28;15.40;77.10
43995;DHT22;51687;52.160;5.298;2023-10-31T12:03:55;15.30;76.90
43995;DHT22;51687;52.160;5.298;2023-10-31T12:06:22;15.30;77.10
43995;DHT22;51687;52.160;5.298;2023-10-31T12:08:49;15.30;77.00
43995;DHT22;51687;52.160;5.298;2023-10-31T12:11:18;15.30;76.80
43995;DHT22;51687;52.160;5.298;2023-10-31T12:16:27;15.20;77.10
43995;DHT22;51687;52.160;5.298;2023-10-31T12:18:55;15.20;77.80
43995;DHT22;51687;52.160;5.298;2023-10-31T12:21:44;15.20;78.60
43995;DHT22;51687;52.160;5.298;2023-10-31T12:24:14;15.30;79.60
43995;DHT22;51687;52.160;5.298;2023-10-31T12:26:42;15.30;80.10
43995;DHT22;51687;52.160;5.298;2023-10-31T12:29:14;15.30;80.50
43995;DHT22;51687;52.160;5.298;2023-10-31T12:31:48;15.40;80.40
43995;DHT22;51687;52.160;5.298;2023-10-31T12:34:17;15.40;80.00
43995;DHT22;51687;52.160;5.298;2023-10-31T12:36:46;15.40;79.70
43995;DHT22;51687;52.160;5.298;2023-10-31T12:39:13;15.40;79.20
43995;DHT22;51687;52.160;5.298;2023-10-31T12:41:43;15.40;79.10
43995;DHT22;51687;52.160;5.298;2023-10-31T12:44:11;15.40;79.20
43995;DHT22;51687;52.160;5.298;2023-10-31T12:46:40;15.40;79.20
43995;DHT22;51687;52.160;5.298;2023-10-31T12:49:26;15.40;79.30
43995;DHT22;51687;52.160;5.298;2023-10-31T12:51:58;15.40;79.50
43995;DHT22;51687;52.160;5.298;2023-10-31T12:54:37;15.40;79.80
43995;DHT22;51687;52.160;5.298;2023-10-31T12:57:08;15.40;79.60
43995;DHT22;51687;52.160;5.298;2023-10-31T12:59:37;15.40;79.20
43995;DHT22;51687;52.160;5.298;2023-10-31T13:02:07;15.30;79.10
43995;DHT22;51687;52.160;5.298;2023-10-31T13:04:35;15.40;79.50
43995;DHT22;51687;52.160;5.298;2023-10-31T13:07:06;15.30;79.30
43995;DHT22;51687;52.160;5.298;2023-10-31T13:09:38;15.30;79.50
43995;DHT22;51687;52.160;5.298;2023-10-31T13:12:07;15.40;79.90
43995;DHT22;51687;52.160;5.298;2023-10-31T13:14:35;15.30;79.90
43995;DHT22;51687;52.160;5.298;2023-10-31T13:17:03;15.40;80.00
43995;DHT22;51687;52.160;5.298;2023-10-31T13:19:30;15.40;79.90
43995;DHT22;51687;52.160;5.298;2023-10-31T13:21:57;15.40;80.10
43995;DHT22;51687;52.160;5.298;2023-10-31T13:24:24;15.40;80.30
43995;DHT22;51687;52.160;5.298;2023-10-31T13:26:51;15.40;80.30
43995;DHT22;51687;52.160;5.298;2023-10-31T13:29:20;15.30;80.20
43995;DHT22;51687;52.160;5.298;2023-10-31T13:31:47;15.40;79.80
43995;DHT22;51687;52.160;5.298;2023-10-31T14:16:05;15.40;79.50
43995;DHT22;51687;52.160;5.298;2023-10-31T14:18:32;15.20;76.50
43995;DHT22;51687;52.160;5.298;2023-10-31T14:20:59;15.10;76.60
43995;DHT22;51687;52.160;5.298;2023-10-31T14:23:26;15.10;76.70
43995;DHT22;51687;52.160;5.298;2023-10-31T14:25:52;15.10;76.80
43995;DHT22;51687;52.160;5.298;2023-10-31T14:28:19;15.10;76.50
43995;DHT22;51687;52.160;5.298;2023-10-31T14:30:46;15.10;76.70
43995;DHT22;51687;52.160;5.298;2023-10-31T14:33:13;15.00;77.00
43995;DHT22;51687;52.160;5.298;2023-10-31T14:35:40;15.10;77.20
43995;DHT22;51687;52.160;5.298;2023-10-31T14:38:07;15.10;77.40
43995;DHT22;51687;52.160;5.298;2023-10-31T14:40:34;15.10;77.50
43995;DHT22;51687;52.160;5.298;2023-10-31T14:43:00;15.10;77.70
43995;DHT22;51687;52.160;5.298;2023-10-31T14:45:27;15.00;77.00
43995;DHT22;51687;52.160;5.298;2023-10-31T14:47:54;15.00;76.90
43995;DHT22;51687;52.160;5.298;2023-10-31T14:50:21;15.00;77.10
43995;DHT22;51687;52.160;5.298;2023-10-31T14:52:48;15.00;77.40
43995;DHT22;51687;52.160;5.298;2023-10-31T14:55:15;15.00;77.50
43995;DHT22;51687;52.160;5.298;2023-10-31T14:57:41;15.00;77.40
43995;DHT22;51687;52.160;5.298;2023-10-31T15:00:09;15.00;77.20
43995;DHT22;51687;52.160;5.298;2023-10-31T15:02:38;14.90;76.90
43995;DHT22;51687;52.160;5.298;2023-10-31T15:05:05;14.90;77.10
43995;DHT22;51687;52.160;5.298;2023-10-31T15:07:31;14.90;76.90
43995;DHT22;51687;52.160;5.298;2023-10-31T15:09:58;14.90;76.80
43995;DHT22;51687;52.160;5.298;2023-10-31T15:12:25;14.80;76.80
43995;DHT22;51687;52.160;5.298;2023-10-31T15:14:53;14.80;77.00
43995;DHT22;51687;52.160;5.298;2023-10-31T15:17:19;14.80;77.00
43995;DHT22;51687;52.160;5.298;2023-10-31T15:19:46;14.80;77.10
43995;DHT22;51687;52.160;5.298;2023-10-31T15:22:13;14.80;77.10
43995;DHT22;51687;52.160;5.298;2023-10-31T15:24:40;14.80;77.10
43995;DHT22;51687;52.160;5.298;2023-10-31T15:27:07;14.80;77.10
43995;DHT22;51687;52.160;5.298;2023-10-31T15:29:34;14.80;77.20
43995;DHT22;51687;52.160;5.298;2023-10-31T15:32:03;14.80;77.30
43995;DHT22;51687;52.160;5.298;2023-10-31T15:34:30;14.80;77.60
43995;DHT22;51687;52.160;5.298;2023-10-31T15:36:57;14.70;77.60
43995;DHT22;51687;52.160;5.298;2023-10-31T15:39:23;14.80;77.80
43995;DHT22;51687;52.160;5.298;2023-10-31T15:41:50;14.70;77.60
43995;DHT22;51687;52.160;5.298;2023-10-31T15:44:17;14.70;77.60
43995;DHT22;51687;52.160;5.298;2023-10-31T15:46:44;14.70;77.50
43995;DHT22;51687;52.160;5.298;2023-10-31T15:49:10;14.70;77.20
43995;DHT22;51687;52.160;5.298;2023-10-31T15:51:40;14.80;77.20
43995;DHT22;51687;52.160;5.298;2023-10-31T15:54:06;14.70;77.30
43995;DHT22;51687;52.160;5.298;2023-10-31T15:56:33;14.70;77.60
43995;DHT22;51687;52.160;5.298;2023-10-31T15:59:00;14.70;77.30
43995;DHT22;51687;52.160;5.298;2023-10-31T16:01:29;14.70;77.30
43995;DHT22;51687;52.160;5.298;2023-10-31T16:03:56;14.60;77.30
43995;DHT22;51687;52.160;5.298;2023-10-31T16:06:23;14.60;77.10
43995;DHT22;51687;52.160;5.298;2023-10-31T16:08:50;14.60;77.10
43995;DHT22;51687;52.160;5.298;2023-10-31T16:11:16;14.60;77.30
43995;DHT22;51687;52.160;5.298;2023-10-31T16:13:43;14.60;77.50
43995;DHT22;51687;52.160;5.298;2023-10-31T16:16:10;14.60;77.30
43995;DHT22;51687;52.160;5.298;2023-10-31T16:18:37;14.60;77.40
43995;DHT22;51687;52.160;5.298;2023-10-31T16:21:05;14.60;77.80
43995;DHT22;51687;52.160;5.298;2023-10-31T16:23:33;14.60;77.20
43995;DHT22;51687;52.160;5.298;2023-10-31T16:26:00;14.50;77.30
43995;DHT22;51687;52.160;5.298;2023-10-31T16:28:27;14.60;79.90
43995;DHT22;51687;52.160;5.298;2023-10-31T16:30:57;14.90;80.30
43995;DHT22;51687;52.160;5.298;2023-10-31T16:33:24;14.90;77.80
43995;DHT22;51687;52.160;5.298;2023-10-31T16:35:51;14.90;76.90
43995;DHT22;51687;52.160;5.298;2023-10-31T16:38:18;14.90;76.20
43995;DHT22;51687;52.160;5.298;2023-10-31T16:40:45;14.90;76.30
43995;DHT22;51687;52.160;5.298;2023-10-31T16:43:12;14.90;77.30
43995;DHT22;51687;52.160;5.298;2023-10-31T16:45:39;14.90;76.40
43995;DHT22;51687;52.160;5.298;2023-10-31T16:48:05;14.80;76.30
43995;DHT22;51687;52.160;5.298;2023-10-31T16:50:32;14.80;76.50
43995;DHT22;51687;52.160;5.298;2023-10-31T16:53:02;14.70;76.80
43995;DHT22;51687;52.160;5.298;2023-10-31T16:55:31;14.70;76.80
43995;DHT22;51687;52.160;5.298;2023-10-31T16:57:58;14.60;77.40
43995;DHT22;51687;52.160;5.298;2023-10-31T17:00:27;14.60;77.00
43995;DHT22;51687;52.160;5.298;2023-10-31T17:02:54;14.60;77.20
43995;DHT22;51687;52.160;5.298;2023-10-31T17:05:21;14.50;77.30
43995;DHT22;51687;52.160;5.298;2023-10-31T17:07:47;14.50;77.60
43995;DHT22;51687;52.160;5.298;2023-10-31T17:22:31;14.50;77.80
43995;DHT22;51687;52.160;5.298;2023-10-31T17:25:05;14.50;78.30
43995;DHT22;51687;52.160;5.298;2023-10-31T17:27:32;14.50;78.40
43995;DHT22;51687;52.160;5.298;2023-10-31T17:29:59;14.50;78.30
43995;DHT22;51687;52.160;5.298;2023-10-31T17:32:25;14.50;78.30
43995;DHT22;51687;52.160;5.298;2023-10-31T17:34:52;14.50;78.40
43995;DHT22;51687;52.160;5.298;2023-10-31T17:37:19;14.50;78.40
43995;DHT22;51687;52.160;5.298;2023-10-31T17:39:46;14.50;78.50
43995;DHT22;51687;52.160;5.298;2023-10-31T17:42:12;14.50;78.50
43995;DHT22;51687;52.160;5.298;2023-10-31T17:44:39;14.50;78.50
43995;DHT22;51687;52.160;5.298;2023-10-31T17:47:06;14.50;78.50
43995;DHT22;51687;52.160;5.298;2023-10-31T17:49:33;14.50;78.50
43995;DHT22;51687;52.160;5.298;2023-10-31T17:52:00;14.50;78.50
43995;DHT22;51687;52.160;5.298;2023-10-31T17:54:28;14.50;78.50
43995;DHT22;51687;52.160;5.298;2023-10-31T17:56:56;14.50;78.40
43995;DHT22;51687;52.160;5.298;2023-10-31T17:59:23;14.50;78.20
43995;DHT22;51687;52.160;5.298;2023-10-31T18:01:50;14.60;78.10
43995;DHT22;51687;52.160;5.298;2023-10-31T18:04:20;14.50;77.80
43995;DHT22;51687;52.160;5.298;2023-10-31T18:06:47;14.60;77.80
43995;DHT22;51687;52.160;5.298;2023-10-31T18:09:14;14.50;77.70
43995;DHT22;51687;52.160;5.298;2023-10-31T18:11:41;14.50;77.50
43995;DHT22;51687;52.160;5.298;2023-10-31T18:14:09;14.50;77.50
43995;DHT22;51687;52.160;5.298;2023-10-31T18:16:36;14.50;77.50
43995;DHT22;51687;52.160;5.298;2023-10-31T18:19:03;14.60;77.40
43995;DHT22;51687;52.160;5.298;2023-10-31T18:21:30;14.50;77.20
43995;DHT22;51687;52.160;5.298;2023-10-31T18:23:58;14.50;77.10
43995;DHT22;51687;52.160;5.298;2023-10-31T18:26:24;14.50;76.90
43995;DHT22;51687;52.160;5.298;2023-10-31T18:28:51;14.50;76.90
43995;DHT22;51687;52.160;5.298;2023-10-31T18:31:18;14.50;77.00
43995;DHT22;51687;52.160;5.298;2023-10-31T18:33:45;14.50;76.90
43995;DHT22;51687;52.160;5.298;2023-10-31T18:36:11;14.50;76.90
43995;DHT22;51687;52.160;5.298;2023-10-31T18:38:42;14.50;76.90
43995;DHT22;51687;52.160;5.298;2023-10-31T18:41:09;14.50;76.90
43995;DHT22;51687;52.160;5.298;2023-10-31T18:43:36;14.50;76.90
43995;DHT22;51687;52.160;5.298;2023-10-31T18:46:12;14.50;76.80
43995;DHT22;51687;52.160;5.298;2023-10-31T18:48:38;14.50;76.80
43995;DHT22;51687;52.160;5.298;2023-10-31T18:51:06;14.50;76.80
43995;DHT22;51687;52.160;5.298;2023-10-31T18:53:33;14.50;76.70
43995;DHT22;51687;52.160;5.298;2023-10-31T18:56:00;14.50;76.70
43995;DHT22;51687;52.160;5.298;2023-10-31T18:58:27;14.50;76.70
43995;DHT22;51687;52.160;5.298;2023-10-31T19:00:54;14.50;76.70
43995;DHT22;51687;52.160;5.298;2023-10-31T19:03:21;14.50;76.60
43995;DHT22;51687;52.160;5.298;2023-10-31T19:05:48;14.50;76.50
43995;DHT22;51687;52.160;5.298;2023-10-31T19:08:15;14.50;76.50
43995;DHT22;51687;52.160;5.298;2023-10-31T19:10:41;14.50;76.60